createdAt,value
2022-11-15T00:01:35.666Z,11.48
2022-11-15T00:05:55.700Z,11.26
2022-11-15T00:10:14.508Z,11.19
2022-11-15T00:14:33.241Z,11.22
2022-11-15T00:18:55.015Z,11.31
2022-11-15T00:23:14.271Z,11.40
2022-11-15T00:27:33.038Z,11.63
2022-11-15T00:31:51.440Z,11.69
2022-11-15T00:36:14.114Z,11.80
2022-11-15T00:40:33.548Z,11.90
2022-11-15T00:44:52.265Z,12.05
2022-11-15T00:49:10.749Z,12.13
2022-11-15T00:53:32.389Z,12.14
2022-11-15T00:57:51.412Z,12.19
2022-11-15T01:02:10.194Z,12.19
2022-11-15T01:06:29.011Z,12.15
2022-11-15T01:10:50.200Z,12.31
2022-11-15T01:15:10.628Z,12.33
2022-11-15T01:19:29.367Z,12.33
2022-11-15T01:23:48.622Z,12.30
2022-11-15T01:28:09.913Z,12.35
2022-11-15T01:32:28.418Z,12.38
2022-11-15T01:36:47.227Z,12.41
2022-11-15T01:41:06.532Z,12.51
2022-11-15T01:45:28.008Z,12.51
2022-11-15T01:49:57.089Z,12.53
2022-11-15T01:54:22.864Z,12.56
2022-11-15T01:58:44.957Z,12.45
2022-11-15T02:03:06.780Z,12.33
2022-11-15T02:07:28.847Z,12.08
2022-11-15T02:11:50.424Z,11.63
2022-11-15T02:16:22.279Z,11.48
2022-11-15T02:21:21.223Z,11.33
2022-11-15T02:25:53.522Z,11.18
2022-11-15T02:30:30.025Z,10.88
2022-11-15T02:34:58.827Z,10.69
2022-11-15T02:39:29.313Z,10.68
2022-11-15T02:44:00.762Z,10.57
2022-11-15T02:48:25.109Z,10.47
2022-11-15T02:52:43.754Z,10.42
2022-11-15T02:57:07.783Z,10.31
2022-11-15T03:01:45.334Z,10.12
2022-11-15T03:06:24.557Z,10.03
2022-11-15T03:10:56.085Z,10.02
2022-11-15T03:15:23.637Z,10.00
2022-11-15T03:19:49.414Z,9.93
2022-11-15T03:24:12.617Z,9.82
2022-11-15T03:28:42.992Z,9.66
2022-11-15T03:33:07.130Z,9.91
2022-11-15T03:37:34.479Z,9.88
2022-11-15T03:42:07.965Z,9.74
2022-11-15T03:46:33.024Z,9.67
2022-11-15T03:50:52.620Z,9.64
2022-11-15T03:55:16.564Z,9.67
2022-11-15T03:59:38.083Z,9.72
2022-11-15T04:03:56.752Z,9.70
2022-11-15T04:08:15.265Z,9.75
2022-11-15T04:12:37.325Z,9.84
2022-11-15T04:16:58.404Z,10.03
2022-11-15T04:21:29.281Z,10.15
2022-11-15T04:25:50.320Z,10.17
2022-11-15T04:30:11.849Z,10.21
2022-11-15T04:34:33.770Z,10.29
2022-11-15T04:38:52.384Z,10.11
2022-11-15T04:43:11.190Z,10.10
2022-11-15T04:47:31.502Z,10.08
2022-11-15T04:51:52.621Z,9.96
2022-11-15T04:56:11.421Z,9.96
2022-11-15T05:00:31.763Z,9.92
2022-11-15T05:04:50.215Z,9.77
2022-11-15T05:09:11.595Z,9.44
2022-11-15T05:13:30.546Z,9.58
2022-11-15T05:17:49.916Z,9.59
2022-11-15T05:22:08.676Z,9.51
2022-11-15T05:26:30.139Z,9.55
2022-11-15T05:30:48.545Z,9.42
2022-11-15T05:35:12.854Z,9.27
2022-11-15T05:39:31.563Z,9.42
2022-11-15T05:43:54.200Z,9.49
2022-11-15T05:48:14.650Z,9.30
2022-11-15T05:52:39.981Z,9.42
2022-11-15T05:56:58.672Z,9.37
2022-11-15T06:01:19.889Z,9.59
2022-11-15T06:05:39.160Z,9.63
2022-11-15T06:09:58.104Z,9.65
2022-11-15T06:14:16.758Z,9.81
2022-11-15T06:18:40.202Z,9.81
2022-11-15T06:23:01.876Z,9.63
2022-11-15T06:27:20.464Z,9.76
2022-11-15T06:31:39.353Z,9.94
2022-11-15T06:36:05.163Z,9.82
2022-11-15T06:40:23.818Z,9.95
2022-11-15T06:44:42.764Z,10.44
2022-11-15T06:49:05.285Z,10.57
2022-11-15T06:53:32.082Z,10.64
2022-11-15T06:57:52.347Z,10.56
2022-11-15T07:02:16.187Z,10.44
2022-11-15T07:06:34.971Z,10.41
2022-11-15T07:11:11.570Z,10.16
2022-11-15T07:15:34.275Z,10.19
2022-11-15T07:19:53.140Z,10.39
2022-11-15T07:24:12.202Z,10.24
2022-11-15T07:28:34.267Z,10.39
2022-11-15T07:32:58.707Z,10.56
2022-11-15T07:37:18.104Z,10.59
2022-11-15T07:41:38.379Z,10.80
2022-11-15T07:46:03.064Z,10.93
2022-11-15T07:50:23.474Z,10.73
2022-11-15T07:54:42.944Z,11.28
2022-11-15T07:59:06.316Z,11.11
2022-11-15T08:03:31.311Z,11.41
2022-11-15T08:07:52.696Z,11.74
2022-11-15T08:12:11.772Z,11.86
2022-11-15T08:16:30.565Z,12.09
2022-11-15T08:20:51.619Z,12.15
2022-11-15T08:25:11.650Z,12.38
2022-11-15T08:29:30.723Z,12.82
2022-11-15T08:33:49.992Z,12.91
2022-11-15T08:38:12.376Z,13.29
2022-11-15T08:42:31.398Z,13.75
2022-11-15T08:46:50.413Z,13.67
2022-11-15T08:51:20.970Z,14.07
2022-11-15T08:55:44.882Z,14.36
2022-11-15T09:00:05.002Z,14.53
2022-11-15T09:04:24.655Z,14.96
2022-11-15T09:08:47.822Z,15.44
2022-11-15T09:13:15.396Z,15.88
2022-11-15T09:17:35.527Z,16.39
2022-11-15T09:21:54.882Z,16.94
2022-11-15T09:26:15.307Z,17.12
2022-11-15T09:30:37.797Z,17.05
2022-11-15T09:46:49.878Z,17.32
2022-11-15T09:52:04.002Z,17.76
2022-11-15T09:56:34.250Z,17.15
2022-11-15T10:00:48.031Z,17.92
2022-11-15T10:04:55.443Z,18.06
2022-11-15T10:09:03.673Z,18.02
2022-11-15T10:13:04.392Z,18.54
2022-11-15T10:17:52.316Z,18.63
2022-11-15T10:22:12.790Z,19.17
2022-11-15T10:26:19.914Z,19.77
2022-11-15T10:30:26.203Z,20.23
2022-11-15T10:34:30.652Z,20.34
2022-11-15T10:38:34.099Z,21.06
2022-11-15T10:42:34.643Z,21.41
2022-11-15T10:46:46.760Z,21.41
2022-11-15T10:50:50.736Z,21.74
2022-11-15T10:54:59.615Z,21.78
2022-11-15T10:59:05.623Z,22.09
2022-11-15T11:03:33.803Z,22.38
2022-11-15T11:07:45.497Z,22.41
2022-11-15T11:11:54.781Z,22.43
2022-11-15T11:16:10.090Z,22.30
2022-11-15T11:20:23.636Z,21.91
2022-11-15T11:24:37.501Z,22.11
2022-11-15T11:28:54.769Z,23.27
2022-11-15T11:33:12.165Z,23.59
2022-11-15T11:37:24.514Z,23.77
2022-11-15T11:41:46.960Z,24.27
2022-11-15T11:46:17.330Z,23.72
2022-11-15T11:50:23.145Z,24.16
2022-11-15T11:54:34.827Z,24.50
2022-11-15T11:58:42.287Z,24.96
2022-11-15T12:02:51.656Z,25.60
2022-11-15T12:06:57.254Z,26.51
2022-11-15T12:11:11.027Z,26.85
2022-11-15T12:15:20.226Z,27.46
2022-11-15T12:19:22.894Z,26.86
2022-11-15T12:23:30.379Z,26.53
2022-11-15T12:27:40.430Z,26.07
2022-11-15T12:31:45.750Z,27.21
2022-11-15T12:36:02.054Z,26.98
2022-11-15T12:40:24.749Z,26.44
2022-11-15T12:45:02.756Z,25.60
2022-11-15T12:49:05.536Z,25.51
2022-11-15T12:53:41.231Z,25.14
2022-11-15T12:57:56.998Z,25.27
2022-11-15T13:02:04.634Z,25.86
2022-11-15T13:06:14.548Z,26.97
2022-11-15T13:10:38.019Z,26.57
2022-11-15T13:14:56.738Z,26.70
2022-11-15T13:19:02.022Z,28.04
2022-11-15T13:23:13.745Z,27.79
2022-11-15T13:27:26.542Z,27.26
2022-11-15T13:31:40.016Z,26.32
2022-11-15T13:35:45.311Z,25.67
2022-11-15T13:39:46.830Z,25.25
2022-11-15T13:43:51.800Z,24.28
2022-11-15T13:48:01.690Z,23.89
2022-11-15T13:52:05.252Z,23.64
2022-11-15T13:56:09.339Z,23.53
2022-11-15T14:00:37.001Z,22.40
2022-11-15T14:04:54.705Z,21.99
2022-11-15T14:09:44.156Z,21.44
2022-11-15T14:14:06.555Z,22.65
2022-11-15T14:18:11.446Z,22.98
2022-11-15T14:22:27.294Z,23.19
2022-11-15T14:26:39.539Z,23.92
2022-11-15T14:30:43.889Z,24.46
2022-11-15T14:34:48.748Z,24.79
2022-11-15T14:38:56.532Z,23.95
2022-11-15T14:42:57.111Z,23.38
2022-11-15T14:47:00.699Z,22.42
2022-11-15T14:51:06.671Z,22.21
2022-11-15T14:55:22.917Z,23.04
2022-11-15T14:59:23.929Z,22.77
2022-11-15T15:03:26.370Z,22.51
2022-11-15T15:07:31.780Z,21.48
2022-11-15T15:11:36.394Z,20.61
2022-11-15T15:15:40.509Z,20.19
2022-11-15T15:19:41.326Z,19.53
2022-11-15T15:23:45.529Z,19.12
2022-11-15T15:27:45.614Z,19.03
2022-11-15T15:31:45.749Z,18.64
2022-11-15T15:35:46.328Z,18.25
2022-11-15T15:39:49.098Z,17.97
2022-11-15T15:43:49.480Z,17.61
2022-11-15T15:47:51.138Z,17.27
2022-11-15T15:51:51.214Z,17.21
2022-11-15T15:55:53.947Z,16.94
2022-11-15T15:59:54.113Z,16.79
2022-11-15T16:03:54.318Z,16.58
2022-11-15T16:07:54.818Z,16.44
2022-11-15T16:11:57.522Z,16.26
2022-11-15T16:15:59.016Z,15.96
2022-11-15T16:19:59.099Z,15.84
2022-11-15T16:23:59.232Z,15.72
2022-11-15T16:28:01.931Z,15.58
2022-11-15T16:32:02.291Z,15.50
2022-11-15T16:36:02.634Z,15.37
2022-11-15T16:40:02.755Z,15.22
2022-11-15T16:44:05.432Z,15.08
2022-11-15T16:48:06.157Z,14.94
2022-11-15T16:52:08.022Z,14.84
2022-11-15T16:56:21.016Z,14.71
2022-11-15T17:00:24.967Z,14.67
2022-11-15T17:04:27.786Z,14.53
2022-11-15T17:08:28.745Z,14.38
2022-11-15T17:12:31.049Z,14.27
2022-11-15T17:16:35.278Z,14.09
2022-11-15T17:20:36.015Z,14.05
2022-11-15T17:24:36.349Z,14.00
2022-11-15T17:28:37.692Z,14.05
2022-11-15T17:32:42.030Z,14.13
2022-11-15T17:36:42.125Z,14.22
2022-11-15T17:40:42.253Z,14.22
2022-11-15T17:44:42.296Z,14.21
2022-11-15T17:48:45.013Z,14.22
2022-11-15T17:52:45.376Z,14.12
2022-11-15T17:56:45.595Z,14.17
2022-11-15T18:00:45.717Z,14.39
2022-11-15T18:04:48.397Z,14.44
2022-11-15T18:08:51.004Z,14.67
2022-11-15T18:12:51.145Z,14.51
2022-11-15T18:16:51.838Z,14.46
2022-11-15T18:21:04.335Z,14.53
2022-11-15T18:25:04.500Z,14.54
2022-11-15T18:29:07.477Z,14.40
2022-11-15T18:33:07.572Z,14.22
2022-11-15T18:37:10.563Z,13.99
2022-11-15T18:41:14.005Z,14.02
2022-11-15T18:45:14.609Z,14.06
2022-11-15T18:49:19.752Z,14.08
2022-11-15T18:53:22.760Z,14.06
2022-11-15T18:57:23.023Z,14.11
2022-11-15T19:01:26.220Z,13.94
2022-11-15T19:05:26.396Z,13.58
2022-11-15T19:09:32.908Z,13.73
2022-11-15T19:13:33.657Z,13.52
2022-11-15T19:17:37.055Z,13.51
2022-11-15T19:21:38.405Z,13.44
2022-11-15T19:25:41.196Z,13.15
2022-11-15T19:29:41.987Z,13.13
2022-11-15T19:33:44.096Z,13.19
2022-11-15T19:37:44.221Z,13.14
2022-11-15T19:41:48.348Z,13.26
2022-11-15T19:46:01.038Z,13.18
2022-11-15T19:50:02.502Z,13.30
2022-11-15T19:54:06.804Z,13.30
2022-11-15T19:58:09.843Z,13.06
2022-11-15T20:02:11.718Z,13.22
2022-11-15T20:06:15.758Z,12.76
2022-11-15T20:10:19.688Z,12.89
2022-11-15T20:14:24.212Z,12.46
2022-11-15T20:18:26.870Z,12.53
2022-11-15T20:22:28.993Z,12.55
2022-11-15T20:26:30.356Z,12.61
2022-11-15T20:30:33.116Z,12.82
2022-11-15T20:34:33.248Z,12.84
2022-11-15T20:38:35.229Z,12.90
2022-11-15T20:42:35.645Z,12.64
2022-11-15T20:46:38.330Z,12.78
2022-11-15T20:50:43.266Z,12.74
2022-11-15T20:54:43.818Z,12.70
2022-11-15T20:58:45.808Z,12.66
2022-11-15T21:02:48.568Z,12.59
2022-11-15T21:06:49.090Z,12.20
2022-11-15T21:11:07.637Z,12.24
2022-11-15T21:15:12.257Z,12.37
2022-11-15T21:19:15.547Z,12.19
2022-11-15T21:23:15.680Z,12.09
2022-11-15T21:27:15.839Z,12.03
2022-11-15T21:31:15.984Z,12.03
2022-11-15T21:35:18.830Z,11.99
2022-11-15T21:39:19.382Z,11.86
2022-11-15T21:43:19.879Z,11.84
2022-11-15T21:47:19.956Z,11.90
2022-11-15T21:51:22.733Z,11.94
2022-11-15T21:55:22.863Z,12.00
2022-11-15T21:59:23.194Z,12.00
2022-11-15T22:03:23.319Z,11.90
2022-11-15T22:07:26.024Z,11.77
2022-11-15T22:11:26.548Z,11.58
2022-11-15T22:15:26.629Z,11.65
2022-11-15T22:19:26.914Z,11.57
2022-11-15T22:23:31.763Z,11.64
2022-11-15T22:27:32.101Z,11.40
2022-11-15T22:31:32.627Z,11.29
2022-11-15T22:35:32.871Z,11.15
2022-11-15T22:39:35.863Z,11.06
2022-11-15T22:43:36.763Z,10.73
2022-11-15T22:47:36.922Z,10.65
2022-11-15T22:51:39.015Z,10.87
2022-11-15T22:55:42.656Z,10.87
2022-11-15T22:59:42.875Z,11.01
2022-11-15T23:03:43.106Z,10.96
2022-11-15T23:07:43.656Z,10.88
2022-11-15T23:11:58.917Z,10.81
2022-11-15T23:16:19.937Z,10.72
2022-11-15T23:20:42.042Z,10.60
2022-11-15T23:24:41.110Z,10.53
2022-11-15T23:28:43.917Z,10.47
2022-11-15T23:32:56.554Z,10.35
2022-11-15T23:36:56.873Z,10.31
2022-11-15T23:40:58.083Z,10.03
2022-11-15T23:45:00.942Z,9.95
2022-11-15T23:49:01.375Z,9.98
2022-11-15T23:53:01.575Z,9.78
2022-11-15T23:57:01.773Z,9.74
